Time;durP1;ratioP1;P1;durP2;ratioP2;P2;SDS_P1;SDS_P2;PMS_P1;PMS_P2;Temp;Humidity;BMP_temperature;BMP_pressure;BME280_temperature;BME280_humidity;BME280_pressure;Samples;Min_cycle;Max_cycle;Signal;HPM_P1;HPM_P2
2023/02/05 00:00:42;;;;;;;13.85;4.43;;;;;;;5.77;100.00;103278.50;6066736;23;20018;-72
2023/02/05 00:03:09;;;;;;;5.47;4.97;;;;;;;5.49;100.00;103223.56;6034728;23;20030;-73
2023/02/05 00:05:35;;;;;;;5.18;4.88;;;;;;;5.78;100.00;103275.03;6045526;23;20018;-73
2023/02/05 00:08:02;;;;;;;6.93;5.82;;;;;;;5.77;100.00;103261.16;6042975;23;20041;-73
2023/02/05 00:10:28;;;;;;;7.20;5.90;;;;;;;5.16;100.00;103164.19;6042896;23;20016;-74
2023/02/05 00:12:54;;;;;;;23.60;6.10;;;;;;;5.44;100.00;103214.81;6065617;23;20152;-73
2023/02/05 00:15:21;;;;;;;5.80;4.85;;;;;;;5.59;100.00;103233.19;6044019;23;20080;-74
2023/02/05 00:17:47;;;;;;;7.70;5.13;;;;;;;5.30;100.00;103183.41;6068346;23;20720;-74
2023/02/05 00:20:16;;;;;;;8.23;6.10;;;;;;;5.70;100.00;103240.22;6036181;23;20061;-74
2023/02/05 00:22:42;;;;;;;8.63;6.00;;;;;;;5.23;100.00;103158.16;6057485;23;20035;-73
2023/02/05 00:25:09;;;;;;;11.93;5.60;;;;;;;5.68;100.00;103234.13;6036528;23;20031;-74
2023/02/05 00:27:35;;;;;;;5.85;5.35;;;;;;;5.67;100.00;103224.56;6013560;23;20111;-73
2023/02/05 00:30:02;;;;;;;21.88;5.53;;;;;;;5.65;100.00;103218.47;6039011;23;20037;-73
2023/02/05 00:32:28;;;;;;;5.53;5.22;;;;;;;5.60;100.00;103208.88;6043883;23;20109;-73
2023/02/05 00:34:55;;;;;;;7.15;6.32;;;;;;;5.58;100.00;103214.94;6040968;23;20555;-74
2023/02/05 00:37:21;;;;;;;12.75;5.60;;;;;;;5.26;100.00;103163.41;6030607;23;20027;-73
2023/02/05 00:39:47;;;;;;;7.47;6.78;;;;;;;5.37;100.00;103189.56;6041716;23;20022;-74
2023/02/05 00:42:14;;;;;;;23.10;5.80;;;;;;;5.22;100.00;103158.19;6013207;23;20036;-73
2023/02/05 00:44:40;;;;;;;6.03;5.53;;;;;;;5.58;100.00;103217.53;6042484;23;20033;-73
2023/02/05 00:47:07;;;;;;;6.05;5.43;;;;;;;5.46;100.00;103189.66;6042541;23;20014;-73
2023/02/05 00:49:33;;;;;;;6.85;6.03;;;;;;;5.56;100.00;103209.72;6036935;23;20607;-72
2023/02/05 00:51:59;;;;;;;5.97;5.10;;;;;;;5.51;100.00;103198.38;6050054;23;20689;-73
2023/02/05 00:54:26;;;;;;;11.13;6.43;;;;;;;5.12;100.00;103134.66;6064597;23;20026;-73
2023/02/05 00:56:52;;;;;;;18.30;5.45;;;;;;;5.46;100.00;103179.22;6040794;23;20034;-73
2023/02/05 00:59:18;;;;;;;6.50;5.80;;;;;;;4.98;100.00;103089.41;6042035;23;20042;-72
2023/02/05 01:01:45;;;;;;;4.70;4.40;;;;;;;5.51;100.00;103159.31;6042197;23;20046;-72
2023/02/05 01:04:11;;;;;;;5.57;5.07;;;;;;;5.49;100.00;103149.72;6044459;23;20048;-73
2023/02/05 01:06:38;;;;;;;5.70;5.20;;;;;;;5.50;100.00;103154.97;6041786;23;20063;-72
2023/02/05 01:09:04;;;;;;;6.50;5.40;;;;;;;5.63;100.00;103165.47;6038327;23;20084;-72
2023/02/05 01:11:30;;;;;;;8.25;5.60;;;;;;;5.50;100.00;103144.53;6043813;23;20052;-74
2023/02/05 01:13:57;;;;;;;6.30;5.75;;;;;;;5.27;100.00;103084.47;6055987;23;20007;-73
2023/02/05 01:16:23;;;;;;;7.05;6.22;;;;;;;5.53;100.00;103115.94;6041798;23;20015;-74
2023/02/05 01:18:51;;;;;;;13.65;4.97;;;;;;;4.28;100.00;102898.00;6037384;23;20030;-73
2023/02/05 01:21:17;;;;;;;12.63;6.50;;;;;;;5.54;100.00;103115.06;6044077;23;20026;-73
2023/02/05 01:23:44;;;;;;;12.02;6.20;;;;;;;5.49;100.00;103088.13;6042492;23;20034;-72
2023/02/05 01:26:13;;;;;;;10.18;6.72;;;;;;;5.53;100.00;103096.81;6067258;23;20031;-73
2023/02/05 01:28:39;;;;;;;5.38;5.07;;;;;;;5.35;100.00;103046.34;6040210;23;20042;-74
2023/02/05 01:31:05;;;;;;;11.93;6.07;;;;;;;5.45;100.00;103067.22;6070576;23;20036;-73
2023/02/05 01:33:32;;;;;;;11.85;5.50;;;;;;;5.39;100.00;103066.34;6037768;23;20089;-74
2023/02/05 01:35:58;;;;;;;9.68;5.18;;;;;;;5.43;100.00;103075.03;6062951;23;20017;-74
2023/02/05 01:38:25;;;;;;;11.13;6.40;;;;;;;4.29;100.00;102924.88;6034535;23;20048;-74
2023/02/05 01:40:51;;;;;;;15.43;5.47;;;;;;;4.90;100.00;102986.97;6068577;23;20495;-72
2023/02/05 01:43:18;;;;;;;6.18;5.50;;;;;;;4.98;100.00;103004.41;6042972;23;20030;-75
2023/02/05 01:45:59;;;;;;;5.07;4.65;;;;;;;5.52;100.00;103062.09;6052276;23;20014;-72
2023/02/05 01:48:35;;;;;;;12.73;5.47;;;;;;;5.43;100.00;103048.97;6068837;23;20460;-73
2023/02/05 01:51:06;;;;;;;4.75;4.45;;;;;;;5.26;100.00;103029.78;6077185;23;20029;-73
2023/02/05 01:53:34;;;;;;;6.95;6.25;;;;;;;5.34;100.00;103049.78;6063189;23;20026;-73
2023/02/05 01:56:07;;;;;;;5.97;5.30;;;;;;;5.52;100.00;103071.63;6073443;23;20067;-73
2023/02/05 01:58:40;;;;;;;4.85;4.57;;;;;;;5.36;100.00;103068.91;6040062;23;20038;-74
2023/02/05 02:01:06;;;;;;;6.05;5.55;;;;;;;5.50;100.00;103076.81;6036810;23;20636;-73
2023/02/05 02:03:33;;;;;;;5.97;5.53;;;;;;;5.27;100.00;103050.63;6036692;23;20117;-74
2023/02/05 02:05:59;;;;;;;5.22;4.78;;;;;;;4.97;100.00;102989.66;6047133;23;20026;-73
2023/02/05 02:08:26;;;;;;;11.93;5.60;;;;;;;5.44;100.00;103063.75;6034065;23;20114;-72
2023/02/05 02:10:56;;;;;;;7.82;4.88;;;;;;;5.31;100.00;103048.91;6064494;23;20026;-72
2023/02/05 02:13:25;;;;;;;6.13;5.70;;;;;;;5.07;100.00;103005.31;6065003;23;20010;-73
2023/02/05 02:15:52;;;;;;;9.18;4.75;;;;;;;4.78;100.00;102961.75;6046153;23;20033;-72
2023/02/05 02:18:25;;;;;;;5.65;5.05;;;;;;;5.01;100.00;103011.34;6060905;23;20113;-74
2023/02/05 02:21:25;;;;;;;5.43;4.93;;;;;;;5.35;100.00;103089.72;6012062;23;20081;-73
2023/02/05 02:24:12;;;;;;;5.70;5.10;;;;;;;5.35;100.00;103102.75;6060193;23;20656;-73
2023/02/05 02:27:18;;;;;;;6.13;5.15;;;;;;;5.30;100.00;103101.84;6042817;23;20456;-75
2023/02/05 02:29:52;;;;;;;8.90;5.07;;;;;;;5.26;100.00;103105.28;6058368;23;20039;-73
2023/02/05 02:32:40;;;;;;;4.45;4.15;;;;;;;5.23;100.00;103103.50;6040966;23;20108;-71
2023/02/05 02:35:15;;;;;;;6.32;4.70;;;;;;;5.24;100.00;103107.88;6061332;23;20447;-73
2023/02/05 02:37:52;;;;;;;6.28;5.43;;;;;;;4.97;100.00;103066.81;6040380;23;20645;-72
2023/02/05 02:40:24;;;;;;;8.65;5.57;;;;;;;5.10;100.00;103076.50;6065626;23;20029;-73
2023/02/05 02:43:03;;;;;;;10.00;5.30;;;;;;;5.22;100.00;103093.09;6042526;23;20056;-72
2023/02/05 02:45:33;;;;;;;10.20;5.55;;;;;;;5.32;100.00;103100.13;6039308;23;20591;-73
2023/02/05 02:48:03;;;;;;;5.30;4.80;;;;;;;4.77;100.00;103004.19;6073073;23;20017;-72
2023/02/05 02:50:34;;;;;;;7.38;6.07;;;;;;;5.05;100.00;103043.47;6069216;23;20424;-72
2023/02/05 02:53:15;;;;;;;7.53;6.78;;;;;;;5.18;100.00;103055.75;6067954;23;20588;-74
2023/02/05 02:55:43;;;;;;;5.05;4.60;;;;;;;5.00;100.00;103018.28;6066020;23;20789;-74
2023/02/05 02:58:21;;;;;;;3.95;3.75;;;;;;;5.22;100.00;103046.25;6070920;23;20021;-73
2023/02/05 03:00:48;;;;;;;11.40;6.07;;;;;;;5.40;100.00;103078.47;6064414;23;20047;-72
2023/02/05 03:03:19;;;;;;;14.63;6.57;;;;;;;5.00;100.00;103035.63;6069114;23;20018;-72
2023/02/05 03:05:48;;;;;;;9.23;5.28;;;;;;;5.42;100.00;103065.47;6067143;23;20018;-72
2023/02/05 03:08:22;;;;;;;8.68;6.40;;;;;;;5.45;100.00;103073.31;6068500;23;20021;-73
2023/02/05 03:11:01;;;;;;;7.57;6.60;;;;;;;5.47;100.00;103063.78;6066833;23;20037;-73
2023/02/05 03:13:28;;;;;;;6.43;5.75;;;;;;;5.27;100.00;103021.09;6029917;23;20015;-73
2023/02/05 03:15:55;;;;;;;5.88;5.28;;;;;;;5.25;100.00;103000.28;6065292;23;20030;-73
2023/02/05 03:18:22;;;;;;;8.75;6.20;;;;;;;5.14;100.00;102976.75;6037077;23;20030;-73
2023/02/05 03:20:53;;;;;;;6.20;5.60;;;;;;;4.88;100.00;102928.88;6064297;23;20026;-71
2023/02/05 03:23:20;;;;;;;12.10;6.53;;;;;;;5.55;100.00;103041.28;6031343;23;20049;-72
2023/02/05 03:25:46;;;;;;;5.72;5.22;;;;;;;5.58;100.00;103038.69;6067846;23;20026;-70
2023/02/05 03:28:13;;;;;;;7.22;6.47;;;;;;;5.61;100.00;103043.03;6042586;23;20026;-74
2023/02/05 03:31:04;;;;;;;8.52;6.13;;;;;;;5.64;100.00;103040.47;6068253;23;20030;-72
2023/02/05 03:33:44;;;;;;;19.25;7.03;;;;;;;5.31;100.00;102979.50;6040938;23;20675;-72
2023/02/05 03:36:24;;;;;;;7.00;6.38;;;;;;;5.72;100.00;103037.91;6069894;23;20022;-72
2023/02/05 03:39:09;;;;;;;19.73;8.00;;;;;;;5.73;100.00;103030.09;6010815;23;20036;-73
2023/02/05 03:41:57;;;;;;;14.27;6.90;;;;;;;5.03;100.00;102908.13;6059766;23;20030;-73
2023/02/05 03:44:45;;;;;;;23.95;7.63;;;;;;;5.49;100.00;102988.25;6032899;23;20046;-73
2023/02/05 03:47:26;;;;;;;14.40;7.35;;;;;;;5.20;100.00;102940.34;6062877;23;20594;-73
2023/02/05 03:50:01;;;;;;;11.70;7.95;;;;;;;5.74;100.00;103015.34;6046033;23;20272;-73
2023/02/05 03:52:34;;;;;;;11.68;8.10;;;;;;;5.45;100.00;102960.47;6064856;23;20101;-73
2023/02/05 03:55:13;;;;;;;14.63;8.98;;;;;;;5.80;100.00;103017.97;6039191;23;20087;-74
2023/02/05 03:57:57;;;;;;;9.23;6.63;;;;;;;5.83;100.00;103024.91;6046361;23;20042;-72
2023/02/05 04:00:25;;;;;;;11.40;6.93;;;;;;;5.30;100.00;102943.88;6059600;23;20029;-72
2023/02/05 04:02:51;;;;;;;11.48;6.88;;;;;;;5.71;100.00;103010.97;6070696;23;20018;-72
2023/02/05 04:05:21;;;;;;;14.77;8.60;;;;;;;5.41;100.00;102959.56;6070128;23;20032;-72
2023/02/05 04:07:49;;;;;;;21.77;9.10;;;;;;;5.87;100.00;103022.31;6054626;23;20585;-73
2023/02/05 04:10:18;;;;;;;15.27;7.40;;;;;;;5.90;100.00;103027.56;6064798;23;20018;-72
2023/02/05 04:12:45;;;;;;;16.02;7.63;;;;;;;5.92;100.00;103044.09;6076792;23;20099;-72
2023/02/05 04:15:11;;;;;;;20.75;8.43;;;;;;;5.45;100.00;102968.28;6040906;23;20018;-72
2023/02/05 04:17:38;;;;;;;10.32;8.55;;;;;;;5.54;100.00;102984.81;6065836;23;20030;-73
2023/02/05 04:20:06;;;;;;;17.10;8.48;;;;;;;5.78;100.00;103017.94;6044389;23;20040;-73
2023/02/05 04:22:32;;;;;;;11.15;8.05;;;;;;;5.90;100.00;103029.31;6036414;23;20038;-73
2023/02/05 04:24:59;;;;;;;15.23;9.10;;;;;;;5.76;100.00;102991.03;6044871;23;20029;-72
2023/02/05 04:27:25;;;;;;;21.10;9.98;;;;;;;5.44;100.00;102949.19;6014993;23;20431;-73
2023/02/05 04:29:52;;;;;;;19.50;10.48;;;;;;;5.96;100.00;103040.66;6042658;23;20033;-73
2023/02/05 04:32:18;;;;;;;10.85;8.40;;;;;;;6.05;100.00;103052.84;6045865;23;20026;-72
2023/02/05 04:34:45;;;;;;;15.27;8.98;;;;;;;6.02;100.00;103060.66;6011851;23;20011;-74
2023/02/05 04:37:11;;;;;;;19.10;8.60;;;;;;;5.84;100.00;103032.75;6044043;23;20112;-73
2023/02/05 04:39:38;;;;;;;20.50;9.50;;;;;;;5.85;100.00;103033.63;6045796;23;20631;-73
2023/02/05 04:42:04;;;;;;;10.57;8.23;;;;;;;6.05;100.00;103073.72;6044616;23;20037;-72
2023/02/05 04:44:31;;;;;;;19.30;8.07;;;;;;;5.92;100.00;103057.13;6037002;23;20062;-72
2023/02/05 04:46:58;;;;;;;17.77;9.63;;;;;;;6.03;100.00;103080.66;6043901;23;20533;-72
2023/02/05 04:49:24;;;;;;;13.90;8.95;;;;;;;5.73;100.00;103032.72;6019589;23;20027;-73
2023/02/05 04:51:51;;;;;;;14.10;7.93;;;;;;;5.95;100.00;103061.50;6045351;23;20521;-72
2023/02/05 04:54:17;;;;;;;13.93;9.82;;;;;;;5.75;100.00;103020.56;6037233;23;20018;-73
2023/02/05 04:56:45;;;;;;;14.55;8.32;;;;;;;6.09;100.00;103077.22;6021882;23;20019;-72
2023/02/05 04:59:12;;;;;;;17.63;8.80;;;;;;;5.59;100.00;102990.94;6039117;23;20023;-72
2023/02/05 05:01:39;;;;;;;11.27;8.30;;;;;;;5.83;100.00;103038.81;6007283;23;20042;-73
2023/02/05 05:04:05;;;;;;;12.07;9.52;;;;;;;6.03;100.00;103066.75;6035969;23;20023;-72
2023/02/05 05:06:32;;;;;;;11.65;8.73;;;;;;;5.84;100.00;103026.69;6041109;23;20274;-73
2023/02/05 05:08:59;;;;;;;21.23;10.43;;;;;;;5.77;100.00;103020.53;6035850;23;20373;-73
2023/02/05 05:11:25;;;;;;;12.70;7.90;;;;;;;5.34;100.00;102952.59;6036071;23;20569;-73
2023/02/05 05:13:52;;;;;;;9.32;8.25;;;;;;;4.85;100.00;102869.00;6016228;23;20086;-73
2023/02/05 05:16:18;;;;;;;13.65;9.30;;;;;;;5.99;100.00;103064.16;6039400;23;20042;-72
2023/02/05 05:18:45;;;;;;;15.85;9.48;;;;;;;5.54;100.00;102983.97;6041815;23;20105;-71
2023/02/05 05:21:12;;;;;;;19.55;9.52;;;;;;;5.92;100.00;103062.31;6042450;23;20030;-73
2023/02/05 05:23:38;;;;;;;14.88;10.85;;;;;;;5.69;100.00;103017.91;6038286;23;20034;-74
2023/02/05 05:26:06;;;;;;;12.18;8.73;;;;;;;6.01;100.00;103065.88;6070137;23;20018;-72
2023/02/05 05:28:34;;;;;;;14.35;9.95;;;;;;;5.97;100.00;103065.88;6042234;23;20996;-72
2023/02/05 05:31:09;;;;;;;14.73;8.57;;;;;;;5.80;100.00;103033.59;6069055;23;20151;-72
2023/02/05 05:33:36;;;;;;;14.73;10.15;;;;;;;5.95;100.00;103058.88;6042387;23;20386;-72
2023/02/05 05:36:04;;;;;;;15.18;10.00;;;;;;;5.99;100.00;103076.28;6066602;23;20029;-72
2023/02/05 05:38:30;;;;;;;12.68;8.80;;;;;;;6.01;100.00;103073.69;6045972;23;20018;-74
2023/02/05 05:43:47;;;;;;;14.93;10.57;;;;;;;5.55;100.00;102994.41;6069851;23;20160;-74
2023/02/05 05:46:23;;;;;;;17.15;10.82;;;;;;;5.69;100.00;103030.06;6065360;23;20500;-72
2023/02/05 05:48:51;;;;;;;21.50;8.18;;;;;;;6.01;100.00;103071.09;6043872;23;20052;-72
2023/02/05 05:51:18;;;;;;;20.73;10.40;;;;;;;5.99;100.00;103068.47;6062995;23;20026;-72
2023/02/05 05:53:45;;;;;;;21.73;11.45;;;;;;;5.52;100.00;102983.09;6031880;23;20058;-72
2023/02/05 05:56:12;;;;;;;14.55;8.85;;;;;;;5.99;100.00;103069.34;6035856;23;20046;-73
2023/02/05 05:58:39;;;;;;;15.45;11.23;;;;;;;5.96;100.00;103074.53;6069248;23;20030;-73
2023/02/05 06:01:06;;;;;;;19.42;8.43;;;;;;;5.44;100.00;102990.84;6061284;23;20615;-72
2023/02/05 06:03:33;;;;;;;13.00;7.72;;;;;;;5.52;100.00;103001.31;6015691;23;20038;-72
2023/02/05 06:06:04;;;;;;;23.17;9.10;;;;;;;5.62;100.00;103029.16;6067162;23;20069;-75
2023/02/05 06:08:31;;;;;;;15.20;10.90;;;;;;;5.93;100.00;103077.13;6063251;23;20051;-73
2023/02/05 06:10:58;;;;;;;12.00;10.55;;;;;;;5.95;100.00;103077.13;6042074;23;20111;-72
2023/02/05 06:13:25;;;;;;;10.25;9.02;;;;;;;5.93;100.00;103073.63;6069651;23;20636;-72
2023/02/05 06:15:54;;;;;;;13.70;8.52;;;;;;;5.77;100.00;103047.50;6066723;23;20033;-73
2023/02/05 06:18:21;;;;;;;12.10;8.48;;;;;;;5.59;100.00;103021.31;6053535;23;20064;-73
2023/02/05 06:20:49;;;;;;;13.73;7.70;;;;;;;5.71;100.00;103043.97;6067325;23;20093;-73
2023/02/05 06:23:16;;;;;;;20.40;9.77;;;;;;;5.80;100.00;103046.63;6039769;23;20031;-73
2023/02/05 06:25:42;;;;;;;17.25;11.43;;;;;;;5.43;100.00;102980.41;6068421;23;20030;-73
2023/02/05 06:28:08;;;;;;;20.27;10.13;;;;;;;5.48;100.00;103008.22;6066375;23;20017;-72
2023/02/05 06:30:35;;;;;;;11.20;9.00;;;;;;;5.89;100.00;103067.50;6065389;23;20034;-73
2023/02/05 06:33:01;;;;;;;14.38;7.65;;;;;;;4.69;100.00;102865.41;6064232;23;20469;-72
2023/02/05 06:35:28;;;;;;;16.80;10.07;;;;;;;5.81;100.00;103056.16;6062210;23;20022;-72
2023/02/05 06:37:54;;;;;;;17.35;8.48;;;;;;;5.73;100.00;103035.31;6044189;23;20018;-73
2023/02/05 06:40:24;;;;;;;16.23;10.02;;;;;;;5.92;100.00;103064.94;6064820;23;20088;-72
2023/02/05 06:42:52;;;;;;;11.85;9.50;;;;;;;5.86;100.00;103071.84;6019017;23;20527;-72
2023/02/05 06:45:19;;;;;;;14.23;8.52;;;;;;;5.58;100.00;103020.44;6069797;23;20432;-73
2023/02/05 06:47:46;;;;;;;14.32;8.77;;;;;;;5.05;100.00;102942.88;6035351;23;20026;-72
2023/02/05 06:50:12;;;;;;;12.75;9.30;;;;;;;5.83;100.00;103058.78;6065783;23;20030;-75
2023/02/05 06:52:39;;;;;;;13.80;10.00;;;;;;;5.82;100.00;103051.84;6044737;23;20058;-72
2023/02/05 06:55:06;;;;;;;19.00;7.45;;;;;;;5.68;100.00;103031.78;6055857;23;20073;-73
2023/02/05 06:57:32;;;;;;;21.20;10.35;;;;;;;5.80;100.00;103044.88;6032898;23;20030;-73
2023/02/05 06:59:59;;;;;;;14.00;8.80;;;;;;;5.53;100.00;103011.75;6064450;23;20025;-73
2023/02/05 07:02:27;;;;;;;18.08;8.25;;;;;;;5.82;100.00;103044.91;6061653;23;20088;-73
2023/02/05 07:04:54;;;;;;;11.40;9.55;;;;;;;5.57;100.00;103012.63;6043386;23;20018;-73
2023/02/05 07:07:20;;;;;;;14.00;7.95;;;;;;;5.49;100.00;102983.03;6071263;23;20022;-73
2023/02/05 07:09:47;;;;;;;19.52;8.95;;;;;;;5.78;100.00;103025.75;6036592;23;20082;-72
2023/02/05 07:12:14;;;;;;;10.30;8.15;;;;;;;5.75;100.00;103025.78;6065033;23;20038;-72
2023/02/05 07:14:41;;;;;;;13.80;9.65;;;;;;;5.37;100.00;102966.50;6064771;23;20022;-73
2023/02/05 07:17:08;;;;;;;18.80;8.43;;;;;;;5.48;100.00;102973.50;6061546;23;20018;-72
2023/02/05 07:19:35;;;;;;;14.15;8.82;;;;;;;5.69;100.00;102996.19;6068081;23;20101;-72
2023/02/05 07:22:02;;;;;;;26.02;8.05;;;;;;;5.93;100.00;103038.03;6063423;23;20089;-72
2023/02/05 07:24:29;;;;;;;11.77;6.90;;;;;;;5.91;100.00;103029.31;6034650;23;20053;-75
2023/02/05 07:26:55;;;;;;;13.73;8.48;;;;;;;5.48;100.00;102943.13;6073618;23;20010;-73
2023/02/05 07:29:21;;;;;;;11.63;7.03;;;;;;;5.54;100.00;102955.31;6003816;23;20034;-70
2023/02/05 07:31:50;;;;;;;7.45;6.75;;;;;;;5.58;100.00;102957.94;6066424;23;20038;-71
2023/02/05 07:34:16;;;;;;;7.90;7.13;;;;;;;5.92;100.00;103024.97;6068809;23;20042;-71
2023/02/05 07:36:42;;;;;;;10.27;7.55;;;;;;;5.15;100.00;102895.22;6059811;23;20689;-70
2023/02/05 07:39:09;;;;;;;10.15;7.88;;;;;;;5.33;100.00;102909.19;6064883;23;20036;-71
2023/02/05 07:41:35;;;;;;;16.02;8.52;;;;;;;5.91;100.00;103020.63;6034805;23;20027;-71
2023/02/05 07:44:02;;;;;;;9.45;8.45;;;;;;;5.67;100.00;102956.22;6065801;23;20018;-71
2023/02/05 07:46:28;;;;;;;10.43;8.38;;;;;;;5.98;100.00;103006.78;6061838;23;20022;-70
2023/02/05 07:48:55;;;;;;;8.60;7.75;;;;;;;5.53;100.00;102923.19;6035122;23;20022;-71
2023/02/05 07:51:23;;;;;;;9.73;7.60;;;;;;;5.89;100.00;103002.34;6048736;23;20034;-73
2023/02/05 07:53:50;;;;;;;16.08;8.20;;;;;;;5.90;100.00;103008.47;6064464;23;20273;-72
2023/02/05 07:56:20;;;;;;;13.30;9.45;;;;;;;5.64;100.00;102951.03;6010670;23;20023;-74
2023/02/05 07:58:48;;;;;;;12.45;7.53;;;;;;;5.91;100.00;102992.84;6070589;23;20159;-74
2023/02/05 08:01:14;;;;;;;11.77;9.02;;;;;;;5.30;100.00;102899.63;6062185;23;20164;-74
2023/02/05 08:03:41;;;;;;;11.27;8.82;;;;;;;4.43;100.00;102732.63;6044676;23;20030;-73
2023/02/05 08:06:10;;;;;;;10.32;7.57;;;;;;;5.83;100.00;102973.66;6062581;23;20123;-73
2023/02/05 08:08:36;;;;;;;11.73;8.68;;;;;;;5.31;100.00;102877.97;6037050;23;20011;-73
2023/02/05 08:11:05;;;;;;;9.13;7.68;;;;;;;5.87;100.00;102970.22;6064587;23;20018;-73
2023/02/05 08:13:32;;;;;;;8.68;7.93;;;;;;;5.25;100.00;102870.13;6064744;23;20034;-74
2023/02/05 08:15:58;;;;;;;11.50;8.80;;;;;;;5.74;100.00;102952.81;6035896;23;20025;-73
2023/02/05 08:18:25;;;;;;;11.13;7.80;;;;;;;5.57;100.00;102931.88;6057781;23;20030;-73
2023/02/05 08:20:53;;;;;;;7.78;7.13;;;;;;;5.53;100.00;102927.50;6064694;23;20025;-72
2023/02/05 08:23:20;;;;;;;8.65;7.05;;;;;;;4.71;100.00;102780.47;6067252;23;20038;-72
2023/02/05 08:25:47;;;;;;;14.85;8.32;;;;;;;4.59;100.00;102770.84;6031711;23;20046;-73
2023/02/05 08:28:13;;;;;;;11.93;7.05;;;;;;;5.71;100.00;102958.88;6009740;23;20386;-72
2023/02/05 08:30:43;;;;;;;8.80;7.40;;;;;;;5.69;100.00;102977.94;6061454;23;20088;-73
2023/02/05 08:33:09;;;;;;;8.43;7.70;;;;;;;5.19;100.00;102883.97;6065860;23;20029;-73
2023/02/05 08:35:36;;;;;;;6.57;6.13;;;;;;;5.25;100.00;102887.44;6057285;23;20010;-73
2023/02/05 08:38:04;;;;;;;7.13;6.47;;;;;;;5.65;100.00;102961.41;6066817;23;20456;-73
2023/02/05 08:40:30;;;;;;;8.50;6.20;;;;;;;5.89;100.00;102989.31;6038294;23;20398;-74
2023/02/05 08:42:59;;;;;;;8.02;6.95;;;;;;;5.79;100.00;102980.63;6059397;23;20113;-74
2023/02/05 08:45:26;;;;;;;6.50;5.90;;;;;;;5.85;100.00;102984.09;6061723;23;20026;-74
2023/02/05 08:47:53;;;;;;;6.22;5.63;;;;;;;5.35;100.00;102923.97;6062434;23;20030;-73
2023/02/05 08:50:20;;;;;;;5.05;4.65;;;;;;;4.53;100.00;102796.81;6031160;23;20088;-74
2023/02/05 08:52:48;;;;;;;4.72;4.43;;;;;;;5.66;100.00;103002.25;6057914;23;20358;-73
2023/02/05 08:55:28;;;;;;;16.08;14.88;;;;;;;5.60;100.00;102984.00;6007590;23;20220;-74
2023/02/05 08:58:09;;;;;;;4.18;3.97;;;;;;;5.67;100.00;102998.78;6018745;23;20104;-73
2023/02/05 09:00:37;;;;;;;3.55;3.35;;;;;;;5.20;100.00;102929.94;6052643;23;20147;-73
2023/02/05 09:03:05;;;;;;;3.38;3.28;;;;;;;5.49;100.00;102981.34;6053013;23;20030;-73
2023/02/05 09:05:31;;;;;;;3.53;3.40;;;;;;;5.73;100.00;103011.88;6065680;23;20097;-73
2023/02/05 09:07:58;;;;;;;3.58;3.47;;;;;;;5.73;100.00;103013.56;6067993;23;20047;-73
2023/02/05 09:10:25;;;;;;;3.63;3.42;;;;;;;5.69;100.00;103006.59;6034197;23;20034;-74
2023/02/05 09:12:51;;;;;;;7.97;3.40;;;;;;;5.38;100.00;102955.22;6044944;23;20023;-73
2023/02/05 09:15:18;;;;;;;3.65;3.38;;;;;;;5.43;100.00;102943.94;6066332;23;20382;-73
2023/02/05 09:17:45;;;;;;;3.40;3.30;;;;;;;5.03;100.00;102900.31;6066376;23;20052;-74
2023/02/05 09:20:11;;;;;;;3.50;3.30;;;;;;;5.05;100.00;102898.63;6040431;23;20010;-74
2023/02/05 09:22:38;;;;;;;3.60;3.50;;;;;;;5.77;100.00;103010.13;6062438;23;20038;-74
2023/02/05 09:25:06;;;;;;;3.30;3.10;;;;;;;5.83;100.00;103023.19;6059597;23;20026;-74
2023/02/05 09:27:33;;;;;;;3.22;3.13;;;;;;;5.86;100.00;103030.16;6061354;23;20053;-73
2023/02/05 09:29:59;;;;;;;3.35;3.25;;;;;;;5.15;100.00;102946.38;6039797;23;20139;-73
2023/02/05 09:32:25;;;;;;;3.45;3.35;;;;;;;5.23;100.00;102946.44;6040037;23;20075;-74
2023/02/05 09:34:52;;;;;;;3.30;3.20;;;;;;;5.80;100.00;103036.22;6038631;23;20422;-74
2023/02/05 09:37:18;;;;;;;4.18;3.60;;;;;;;5.78;100.00;103030.13;6062867;23;20103;-74
2023/02/05 09:39:45;;;;;;;3.60;3.40;;;;;;;5.00;100.00;102895.97;6008572;23;20274;-74
2023/02/05 09:42:45;;;;;;;3.40;3.30;;;;;;;5.23;100.00;102918.66;6060187;23;20034;-73
2023/02/05 09:45:45;;;;;;;3.20;3.10;;;;;;;5.99;100.00;103053.72;6061626;23;20025;-74
2023/02/05 09:48:33;;;;;;;3.45;3.30;;;;;;;5.77;100.00;103031.84;6062937;23;20022;-74
2023/02/05 09:51:00;;;;;;;3.35;3.10;;;;;;;5.68;100.00;103042.22;6030199;23;20029;-74
2023/02/05 09:53:34;;;;;;;3.38;3.28;;;;;;;5.80;100.00;103070.94;6062326;23;20255;-74
2023/02/05 09:56:03;;;;;;;3.40;3.30;;;;;;;5.72;100.00;103056.13;6032413;23;20407;-74
2023/02/05 09:58:33;;;;;;;3.15;3.05;;;;;;;5.86;100.00;103082.28;6065448;23;20057;-74
2023/02/05 10:01:05;;;;;;;3.70;3.50;;;;;;;5.86;100.00;103074.47;6052137;23;20505;-72
2023/02/05 10:03:44;;;;;;;3.30;3.20;;;;;;;5.83;100.00;103079.63;6035726;23;20097;-72
2023/02/05 10:06:45;;;;;;;3.28;3.17;;;;;;;5.68;100.00;103068.25;6063864;23;20381;-72
2023/02/05 10:09:30;;;;;;;3.60;3.40;;;;;;;5.76;100.00;103087.41;6056147;23;20010;-72
2023/02/05 10:12:12;;;;;;;3.83;3.42;;;;;;;5.54;100.00;103057.75;6039595;23;20034;-73
2023/02/05 10:14:59;;;;;;;4.00;3.80;;;;;;;5.73;100.00;103084.81;6064018;23;20092;-73
2023/02/05 10:17:44;;;;;;;3.50;3.30;;;;;;;5.82;100.00;103089.19;6036087;23;20037;-72
2023/02/05 10:20:37;;;;;;;3.25;3.15;;;;;;;5.82;100.00;103089.19;6059565;23;20010;-71
2023/02/05 10:23:15;;;;;;;3.50;3.40;;;;;;;5.83;100.00;103077.03;6031480;23;20011;-71
2023/02/05 10:26:11;;;;;;;3.65;3.30;;;;;;;5.78;100.00;103084.84;6034670;23;20158;-72
2023/02/05 10:29:02;;;;;;;7.75;3.97;;;;;;;5.83;100.00;103080.50;6062693;23;20507;-72
2023/02/05 10:31:40;;;;;;;4.32;3.40;;;;;;;5.90;100.00;103084.91;6054356;23;20081;-71
2023/02/05 10:34:33;;;;;;;3.50;3.40;;;;;;;5.85;100.00;103073.56;6048985;23;20448;-72
2023/02/05 10:37:03;;;;;;;4.85;3.60;;;;;;;5.91;100.00;103081.44;6055909;23;20051;-72
2023/02/05 10:39:30;;;;;;;3.40;3.30;;;;;;;5.89;100.00;103062.28;6067952;23;20018;-71
2023/02/05 10:42:33;;;;;;;3.00;2.90;;;;;;;5.91;100.00;103070.13;6069513;23;20021;-75
2023/02/05 10:45:21;;;;;;;3.42;3.33;;;;;;;6.02;100.00;103067.63;6049953;23;20034;-73
2023/02/05 10:47:55;;;;;;;3.35;3.25;;;;;;;5.91;100.00;103081.44;6022286;23;20089;-73
2023/02/05 10:50:45;;;;;;;4.25;4.05;;;;;;;5.51;100.00;103000.44;6033435;23;20189;-73
2023/02/05 10:53:20;;;;;;;3.20;3.10;;;;;;;6.04;100.00;103069.38;6065135;23;20049;-73
2023/02/05 10:55:47;;;;;;;3.28;3.17;;;;;;;6.02;100.00;103096.31;6041653;23;20022;-73
2023/02/05 10:58:37;;;;;;;3.28;3.17;;;;;;;6.00;100.00;103059.78;6057583;23;20022;-73
2023/02/05 11:01:21;;;;;;;3.17;3.08;;;;;;;6.03;100.00;103075.44;6042714;23;20046;-73
2023/02/05 11:03:58;;;;;;;3.78;3.50;;;;;;;6.01;100.00;103074.56;6063091;23;20026;-73
2023/02/05 11:06:26;;;;;;;6.63;4.32;;;;;;;4.99;100.00;102911.56;6056526;23;20327;-73
2023/02/05 11:08:52;;;;;;;3.42;3.28;;;;;;;5.75;100.00;103051.81;6065992;23;20029;-73
2023/02/05 11:11:27;;;;;;;3.95;3.65;;;;;;;5.60;100.00;103052.59;6058148;23;20018;-73
2023/02/05 11:14:03;;;;;;;3.25;3.15;;;;;;;5.77;100.00;103054.41;6066003;23;20144;-73
2023/02/05 11:16:37;;;;;;;4.50;3.65;;;;;;;5.78;100.00;103075.28;6059450;23;20024;-73
2023/02/05 11:19:17;;;;;;;3.00;2.90;;;;;;;5.83;100.00;103070.06;6069738;23;20037;-73
2023/02/05 11:21:56;;;;;;;5.47;4.35;;;;;;;5.45;100.00;103013.41;6040705;23;20324;-73
2023/02/05 11:24:38;;;;;;;7.55;4.00;;;;;;;5.91;100.00;103076.22;6061907;23;20026;-74
2023/02/05 11:27:25;;;;;;;9.50;3.17;;;;;;;5.97;100.00;103067.59;6008299;23;20026;-73
2023/02/05 11:29:53;;;;;;;7.38;4.25;;;;;;;6.02;100.00;103067.63;6061727;23;20021;-72
2023/02/05 11:32:32;;;;;;;3.40;3.20;;;;;;;5.91;100.00;103070.13;6030175;23;20022;-73
2023/02/05 11:35:29;;;;;;;3.60;3.40;;;;;;;5.91;100.00;103059.69;6063209;23;20465;-74
2023/02/05 11:38:28;;;;;;;4.15;3.95;;;;;;;5.95;100.00;103075.41;6036781;23;20162;-74
2023/02/05 11:41:01;;;;;;;4.30;4.10;;;;;;;5.86;100.00;103071.84;6063523;23;20334;-75